Time;durP1;ratioP1;P1;durP2;ratioP2;P2;SDS_P1;SDS_P2;PMS_P1;PMS_P2;Temp;Humidity;BMP_temperature;BMP_pressure;BME280_temperature;BME280_humidity;BME280_pressure;Samples;Min_cycle;Max_cycle;Signal;HPM_P1;HPM_P2
2024/03/13 00:01:02;;;;;;;70.00;35.85;;;6.70;99.90;;;;;;5118312;27;20772;-61
2024/03/13 00:03:28;;;;;;;66.10;34.63;;;6.70;99.90;;;;;;5121900;27;20134;-62
2024/03/13 00:05:55;;;;;;;67.70;35.33;;;6.70;99.90;;;;;;5120713;27;20558;-61
2024/03/13 00:08:23;;;;;;;69.78;36.90;;;6.70;99.90;;;;;;5121014;27;20540;-61
2024/03/13 00:10:50;;;;;;;70.30;37.10;;;6.80;99.90;;;;;;5124323;27;20578;-62
2024/03/13 00:13:16;;;;;;;66.57;37.22;;;6.70;99.90;;;;;;5120415;27;20043;-61
2024/03/13 00:15:42;;;;;;;70.63;36.92;;;6.80;99.90;;;;;;5119566;27;20036;-61
2024/03/13 00:18:08;;;;;;;73.88;36.65;;;6.70;99.90;;;;;;5125772;27;20042;-62
2024/03/13 00:20:34;;;;;;;70.15;33.85;;;6.70;99.90;;;;;;5118792;27;20043;-62
2024/03/13 00:23:03;;;;;;;79.88;36.70;;;6.70;99.90;;;;;;5124605;27;20042;-62
2024/03/13 00:25:29;;;;;;;69.78;35.25;;;6.60;99.90;;;;;;5116315;27;20038;-62
2024/03/13 00:27:55;;;;;;;69.95;37.00;;;6.70;99.90;;;;;;5120057;27;20050;-60
2024/03/13 00:30:22;;;;;;;69.28;37.05;;;6.70;99.90;;;;;;5118771;27;20547;-61
2024/03/13 00:32:53;;;;;;;76.85;37.88;;;6.70;99.90;;;;;;5117060;27;20521;-61
2024/03/13 00:35:24;;;;;;;68.20;38.10;;;6.70;99.90;;;;;;5119723;27;20035;-61
2024/03/13 00:37:49;;;;;;;66.85;37.63;;;6.60;99.90;;;;;;5118290;27;20465;-61
2024/03/13 00:40:16;;;;;;;70.70;37.83;;;6.70;99.90;;;;;;5120241;27;20060;-61
2024/03/13 00:42:46;;;;;;;73.22;37.67;;;6.70;99.90;;;;;;5113767;27;20131;-61
2024/03/13 00:45:11;;;;;;;72.75;38.42;;;6.70;99.90;;;;;;5115918;27;20038;-61
2024/03/13 00:47:38;;;;;;;74.85;38.28;;;6.70;99.90;;;;;;5117662;27;20047;-62
2024/03/13 00:50:08;;;;;;;72.88;37.35;;;6.70;99.90;;;;;;5116770;27;20071;-61
2024/03/13 00:52:36;;;;;;;70.72;37.50;;;6.80;99.90;;;;;;5121272;27;20046;-62
2024/03/13 00:55:03;;;;;;;69.50;35.57;;;6.80;99.90;;;;;;5111613;27;20072;-61
2024/03/13 00:57:29;;;;;;;73.00;37.13;;;6.80;99.90;;;;;;5119057;27;20050;-64
2024/03/13 00:59:55;;;;;;;66.93;36.00;;;6.70;99.90;;;;;;5117974;27;20582;-62
2024/03/13 01:02:21;;;;;;;66.72;35.50;;;6.80;99.90;;;;;;5115071;27;20038;-61
2024/03/13 01:04:48;;;;;;;75.70;36.75;;;6.90;99.90;;;;;;5119234;27;20073;-61
2024/03/13 01:07:14;;;;;;;74.05;38.53;;;6.80;99.90;;;;;;5116175;27;20043;-60
2024/03/13 01:09:40;;;;;;;71.00;35.70;;;6.90;99.90;;;;;;5124786;27;20088;-61
2024/03/13 01:12:07;;;;;;;68.70;35.15;;;6.90;99.90;;;;;;5119871;27;20039;-61
2024/03/13 01:14:34;;;;;;;67.93;37.15;;;6.90;99.90;;;;;;5117365;27;20125;-62
2024/03/13 01:17:02;;;;;;;62.10;35.00;;;7.00;99.90;;;;;;5114143;27;20039;-61
2024/03/13 01:19:34;;;;;;;69.82;34.90;;;7.00;99.90;;;;;;5118218;27;20031;-62
2024/03/13 01:22:07;;;;;;;63.47;34.65;;;7.00;99.90;;;;;;5117714;27;20208;-61
2024/03/13 01:24:33;;;;;;;65.63;34.72;;;7.00;99.90;;;;;;5113993;27;20622;-61
2024/03/13 01:27:00;;;;;;;63.78;33.38;;;7.10;99.90;;;;;;5111946;27;20089;-61
2024/03/13 01:29:26;;;;;;;67.10;34.50;;;7.20;99.90;;;;;;5122841;27;20394;-61
2024/03/13 01:31:51;;;;;;;61.47;34.65;;;7.20;99.90;;;;;;5120107;27;20037;-62
2024/03/13 01:34:19;;;;;;;67.57;34.38;;;7.20;99.90;;;;;;5116585;27;20031;-62
2024/03/13 01:39:29;;;;;;;64.30;34.67;;;7.30;99.90;;;;;;5122924;27;20154;-62
2024/03/13 01:56:26;;;;;;;64.82;33.10;;;7.40;99.90;;;;;;5112156;27;20176;-61
2024/03/13 01:59:09;;;;;;;65.30;35.15;;;7.40;99.90;;;;;;5110930;27;20353;-61
2024/03/13 02:04:20;;;;;;;60.65;33.15;;;7.50;99.90;;;;;;5111265;27;20478;-62
2024/03/13 02:06:47;;;;;;;62.78;34.38;;;7.40;99.90;;;;;;5111044;27;20130;-61
2024/03/13 02:09:13;;;;;;;62.30;33.15;;;7.50;99.90;;;;;;5113901;27;20039;-61
2024/03/13 02:11:39;;;;;;;62.28;34.88;;;7.50;99.90;;;;;;5125704;27;20125;-62
2024/03/13 02:14:05;;;;;;;56.97;33.28;;;7.50;99.90;;;;;;5122099;27;20060;-61
2024/03/13 02:16:31;;;;;;;59.38;34.83;;;7.50;99.90;;;;;;5117157;27;20031;-62
2024/03/13 02:18:59;;;;;;;56.22;33.45;;;7.50;99.90;;;;;;5114606;27;21000;-62
2024/03/13 02:21:25;;;;;;;66.30;34.80;;;7.50;99.90;;;;;;5116310;27;20127;-60
2024/03/13 02:23:51;;;;;;;58.78;33.97;;;7.50;99.90;;;;;;5118878;27;20050;-61
2024/03/13 02:26:18;;;;;;;60.25;34.08;;;7.50;99.90;;;;;;5114277;27;20035;-61
2024/03/13 02:28:45;;;;;;;65.20;35.28;;;7.50;99.90;;;;;;5116859;27;20043;-61
2024/03/13 02:31:11;;;;;;;61.80;33.47;;;7.50;99.90;;;;;;5113916;27;20126;-62
2024/03/13 02:33:37;;;;;;;66.80;35.53;;;7.60;99.90;;;;;;5118008;27;20061;-62
2024/03/13 02:36:03;;;;;;;65.22;33.33;;;7.60;99.90;;;;;;5120890;27;20043;-62
2024/03/13 02:38:29;;;;;;;62.85;34.45;;;7.50;99.90;;;;;;5121411;27;20502;-62
2024/03/13 02:40:56;;;;;;;62.60;34.00;;;7.50;99.90;;;;;;5120600;27;20066;-62
2024/03/13 02:43:22;;;;;;;62.75;35.13;;;7.50;99.90;;;;;;5120779;27;20111;-62
2024/03/13 02:45:48;;;;;;;67.57;34.25;;;7.60;99.90;;;;;;5115857;27;20039;-62
2024/03/13 02:48:16;;;;;;;60.00;32.63;;;7.60;99.90;;;;;;5112899;28;20044;-62
2024/03/13 02:50:43;;;;;;;60.80;34.63;;;7.60;99.90;;;;;;5113781;28;20084;-62
2024/03/13 02:53:09;;;;;;;59.33;33.95;;;7.60;99.90;;;;;;5118684;27;20254;-62
2024/03/13 02:55:35;;;;;;;63.72;34.58;;;7.60;99.90;;;;;;5115680;27;20450;-62
2024/03/13 02:58:01;;;;;;;71.85;34.58;;;7.60;99.90;;;;;;5117264;27;20582;-62
2024/03/13 03:00:28;;;;;;;63.38;33.03;;;7.60;99.90;;;;;;5116083;28;20405;-62
2024/03/13 03:02:56;;;;;;;64.68;34.50;;;7.60;99.90;;;;;;5112434;28;20035;-61
2024/03/13 03:05:23;;;;;;;58.08;32.50;;;7.70;99.90;;;;;;5116134;27;20116;-62
2024/03/13 03:07:48;;;;;;;59.55;32.60;;;7.60;99.90;;;;;;5121782;27;20036;-61
2024/03/13 03:10:15;;;;;;;58.65;32.33;;;7.70;99.90;;;;;;5121513;27;20045;-60
2024/03/13 03:12:42;;;;;;;62.35;32.65;;;7.70;99.90;;;;;;5126924;27;20039;-61
2024/03/13 03:15:08;;;;;;;62.50;33.22;;;7.60;99.90;;;;;;5120077;27;20064;-59
2024/03/13 03:17:34;;;;;;;62.13;31.67;;;7.70;99.90;;;;;;5118846;27;20035;-61
2024/03/13 03:20:00;;;;;;;59.53;32.42;;;7.70;99.90;;;;;;5123097;27;20087;-61
2024/03/13 03:22:26;;;;;;;54.92;32.33;;;7.60;99.90;;;;;;5122376;27;20440;-61
2024/03/13 03:24:52;;;;;;;59.13;32.92;;;7.70;99.90;;;;;;5117334;27;20155;-61
2024/03/13 03:27:18;;;;;;;56.50;31.15;;;7.70;99.90;;;;;;5118898;27;20027;-61
2024/03/13 03:29:44;;;;;;;54.70;31.63;;;7.70;99.90;;;;;;5118604;27;20035;-61
2024/03/13 03:32:10;;;;;;;55.25;31.05;;;7.80;99.90;;;;;;5123785;27;20440;-61
2024/03/13 03:34:39;;;;;;;53.80;30.63;;;7.70;99.90;;;;;;5122322;27;20066;-62
2024/03/13 03:37:05;;;;;;;59.25;30.42;;;7.80;99.90;;;;;;5122839;27;20543;-61
2024/03/13 03:39:34;;;;;;;59.97;31.08;;;7.80;99.90;;;;;;5115002;27;20039;-61
2024/03/13 03:42:03;;;;;;;51.70;28.80;;;7.80;99.90;;;;;;5115907;27;20122;-62
2024/03/13 03:44:29;;;;;;;59.55;31.90;;;7.90;99.90;;;;;;5118261;27;20047;-61
2024/03/13 03:46:56;;;;;;;61.15;31.00;;;7.90;99.90;;;;;;5119861;27;20095;-61
2024/03/13 03:49:22;;;;;;;57.53;30.50;;;7.80;99.90;;;;;;5117600;27;20123;-62
2024/03/13 03:51:48;;;;;;;56.30;30.40;;;7.80;99.90;;;;;;5120236;27;20071;-62
2024/03/13 03:54:14;;;;;;;55.20;29.80;;;7.90;99.90;;;;;;5120452;27;20042;-61
2024/03/13 03:56:40;;;;;;;55.50;30.05;;;7.80;99.90;;;;;;5119438;27;20217;-61
2024/03/13 03:59:07;;;;;;;55.35;29.90;;;7.80;99.90;;;;;;5119632;27;20494;-62
2024/03/13 04:01:35;;;;;;;52.08;29.42;;;7.90;99.90;;;;;;5121000;27;20035;-61
2024/03/13 04:04:03;;;;;;;59.83;30.05;;;7.80;99.90;;;;;;5117579;27;20034;-62
2024/03/13 04:06:30;;;;;;;60.80;30.50;;;7.90;99.90;;;;;;5123107;27;20200;-61
2024/03/13 04:08:56;;;;;;;60.58;30.13;;;7.90;99.90;;;;;;5122435;27;20418;-62
2024/03/13 04:11:21;;;;;;;55.45;30.33;;;7.90;99.90;;;;;;5126393;27;20042;-61
2024/03/13 04:13:47;;;;;;;56.60;31.05;;;7.90;99.90;;;;;;5125131;27;20042;-62
2024/03/13 04:16:16;;;;;;;59.38;31.33;;;7.90;99.90;;;;;;5119332;27;20035;-62
2024/03/13 04:18:43;;;;;;;59.72;31.13;;;7.90;99.90;;;;;;5117225;27;20046;-61
2024/03/13 04:21:10;;;;;;;58.42;29.83;;;8.00;99.90;;;;;;5120193;27;20489;-61
2024/03/13 04:23:36;;;;;;;56.55;30.60;;;8.00;99.90;;;;;;5123559;27;20406;-62
2024/03/13 04:26:05;;;;;;;57.03;30.27;;;8.00;99.90;;;;;;5116740;27;20039;-62
2024/03/13 04:28:30;;;;;;;;;;;8.00;99.90;;;;;;5116913;27;20049;-62
2024/03/13 04:30:57;;;;;;;50.92;28.35;;;8.00;99.90;;;;;;5125034;27;19919;-62
2024/03/13 04:33:23;;;;;;;56.53;30.10;;;8.00;99.90;;;;;;5128484;27;20124;-62
2024/03/13 04:35:49;;;;;;;55.55;29.65;;;7.90;99.90;;;;;;5121111;27;20119;-62
2024/03/13 04:38:15;;;;;;;59.20;30.67;;;8.00;99.90;;;;;;5121406;27;20116;-62
2024/03/13 04:40:44;;;;;;;53.00;29.33;;;8.00;99.90;;;;;;5126572;27;20437;-61
2024/03/13 04:43:10;;;;;;;52.58;28.48;;;8.00;99.90;;;;;;5119917;27;20447;-61
2024/03/13 04:45:39;;;;;;;55.42;29.85;;;8.00;99.90;;;;;;5118111;27;20054;-61
2024/03/13 04:48:05;;;;;;;50.00;28.77;;;8.00;99.90;;;;;;5118642;27;20039;-60
2024/03/13 04:50:34;;;;;;;53.42;29.30;;;7.90;99.90;;;;;;5122619;27;20046;-61
2024/03/13 04:53:00;;;;;;;;;;;7.90;99.90;;;;;;5115803;27;20043;-62
2024/03/13 04:55:29;;;;;;;54.78;29.27;;;8.00;99.90;;;;;;5122393;27;20413;-61
2024/03/13 04:57:58;;;;;;;58.53;29.52;;;8.00;99.90;;;;;;5124250;27;20070;-61
2024/03/13 05:00:25;;;;;;;51.65;29.13;;;8.00;99.90;;;;;;5115626;27;20142;-61
2024/03/13 05:02:55;;;;;;;52.47;29.27;;;8.00;99.90;;;;;;5130285;27;20121;-61
2024/03/13 05:05:21;;;;;;;55.40;29.85;;;7.90;99.90;;;;;;5118234;27;20430;-62
2024/03/13 05:07:46;;;;;;;52.92;29.17;;;8.00;99.90;;;;;;5122362;27;20452;-61
2024/03/13 05:10:16;;;;;;;53.03;30.58;;;8.00;99.90;;;;;;5119025;27;20051;-61
2024/03/13 05:12:43;;;;;;;48.33;28.00;;;8.00;99.90;;;;;;5114335;27;20035;-61
2024/03/13 05:15:09;;;;;;;60.03;30.38;;;8.00;99.90;;;;;;5116692;27;20128;-60
2024/03/13 05:17:36;;;;;;;62.03;30.65;;;8.00;99.90;;;;;;5116045;27;20114;-60
2024/03/13 05:20:06;;;;;;;52.95;28.90;;;8.00;99.90;;;;;;5123664;27;20055;-60
2024/03/13 05:22:35;;;;;;;59.15;31.50;;;8.00;99.90;;;;;;5116696;27;20043;-61
2024/03/13 05:25:01;;;;;;;55.92;30.90;;;8.00;99.90;;;;;;5115361;27;20275;-60
2024/03/13 05:27:27;;;;;;;62.00;29.67;;;8.00;99.90;;;;;;5115102;27;20039;-61
2024/03/13 05:29:53;;;;;;;58.08;30.23;;;8.10;99.90;;;;;;5121909;27;20108;-61
2024/03/13 05:32:19;;;;;;;59.13;29.52;;;8.00;99.90;;;;;;5112758;27;20043;-61
2024/03/13 05:34:44;;;;;;;60.25;30.10;;;8.10;99.90;;;;;;5122735;27;20034;-61
2024/03/13 05:37:12;;;;;;;62.13;31.55;;;8.10;99.90;;;;;;5117511;27;20049;-61
2024/03/13 05:39:38;;;;;;;58.58;30.52;;;8.10;99.90;;;;;;5113738;27;20069;-61
2024/03/13 05:42:04;;;;;;;65.20;31.13;;;8.10;99.90;;;;;;5117301;27;20031;-61
2024/03/13 05:44:30;;;;;;;71.55;32.65;;;8.10;99.90;;;;;;5119313;27;20432;-61
2024/03/13 05:46:56;;;;;;;71.00;32.35;;;8.10;99.90;;;;;;5113155;27;20398;-61
2024/03/13 05:49:22;;;;;;;72.60;32.42;;;8.00;99.90;;;;;;5119306;27;20145;-61
2024/03/13 05:51:48;;;;;;;77.00;32.08;;;8.20;99.90;;;;;;5117585;27;20138;-61
2024/03/13 05:54:14;;;;;;;76.20;31.48;;;8.20;99.90;;;;;;5121975;27;20065;-62
2024/03/13 05:56:40;;;;;;;78.72;32.47;;;8.20;99.90;;;;;;5123585;27;20045;-61
2024/03/13 05:59:06;;;;;;;82.63;33.28;;;8.20;99.90;;;;;;5129418;27;20035;-61
2024/03/13 06:01:32;;;;;;;77.97;31.90;;;8.10;99.90;;;;;;5121701;27;20035;-62
2024/03/13 06:03:59;;;;;;;82.90;32.92;;;8.20;99.90;;;;;;5119049;27;20046;-61
2024/03/13 06:06:25;;;;;;;88.95;33.55;;;8.20;99.90;;;;;;5119565;27;20047;-61
2024/03/13 06:08:51;;;;;;;97.25;34.25;;;8.30;99.90;;;;;;5118145;27;20041;-62
2024/03/13 06:11:18;;;;;;;85.07;34.13;;;8.10;99.90;;;;;;5113808;27;20035;-62
2024/03/13 06:13:47;;;;;;;88.85;32.40;;;8.20;99.90;;;;;;5121511;27;20043;-62
2024/03/13 06:16:16;;;;;;;87.88;31.98;;;8.20;99.90;;;;;;5124782;27;20081;-63
2024/03/13 06:18:42;;;;;;;87.55;32.63;;;8.30;99.90;;;;;;5118263;27;20042;-61
2024/03/13 06:21:08;;;;;;;99.93;33.20;;;8.20;99.90;;;;;;5113995;27;20074;-62
2024/03/13 06:23:37;;;;;;;83.05;33.08;;;8.20;99.90;;;;;;5124184;27;20473;-61
2024/03/13 06:26:03;;;;;;;76.90;33.05;;;8.20;99.90;;;;;;5123485;27;20039;-61
2024/03/13 06:31:15;;;;;;;65.35;31.45;;;8.30;99.90;;;;;;5124842;27;20144;-62
2024/03/13 06:33:41;;;;;;;86.85;31.92;;;8.30;99.90;;;;;;5121108;27;20042;-62
2024/03/13 06:36:07;;;;;;;80.65;31.00;;;8.30;99.90;;;;;;5121094;27;20498;-62
2024/03/13 06:38:33;;;;;;;78.25;29.95;;;8.50;99.90;;;;;;5125539;27;20045;-63
2024/03/13 06:41:00;;;;;;;79.97;30.98;;;8.30;99.90;;;;;;5126078;27;20049;-62
2024/03/13 06:43:26;;;;;;;78.75;31.42;;;8.40;99.90;;;;;;5131743;27;20381;-62
2024/03/13 06:45:52;;;;;;;67.45;30.30;;;8.40;99.90;;;;;;5124389;27;20560;-62
2024/03/13 06:48:18;;;;;;;75.22;29.25;;;8.50;99.90;;;;;;5128550;27;20153;-62
2024/03/13 06:50:44;;;;;;;79.25;30.00;;;8.50;99.90;;;;;;5116882;27;20153;-62
2024/03/13 06:53:10;;;;;;;66.78;29.17;;;8.50;99.90;;;;;;5120568;27;20968;-62
2024/03/13 06:55:36;;;;;;;67.13;28.40;;;8.60;99.90;;;;;;5118636;27;20051;-63
2024/03/13 06:58:02;;;;;;;61.92;28.17;;;8.60;99.90;;;;;;5117433;27;20046;-62
2024/03/13 07:00:28;;;;;;;71.60;29.92;;;8.60;99.90;;;;;;5129156;27;20050;-62
2024/03/13 07:02:59;;;;;;;72.10;29.42;;;8.70;99.90;;;;;;5133431;27;20035;-62
2024/03/13 07:05:25;;;;;;;67.57;31.08;;;8.60;99.90;;;;;;5130372;27;20455;-59
2024/03/13 07:07:52;;;;;;;71.38;30.85;;;8.60;99.90;;;;;;5130772;27;20044;-59
2024/03/13 07:10:18;;;;;;;73.45;30.08;;;8.70;99.90;;;;;;5128791;27;20043;-59
2024/03/13 07:12:44;;;;;;;72.38;29.42;;;8.60;99.90;;;;;;5128690;27;20046;-61
2024/03/13 07:15:10;;;;;;;62.78;29.60;;;8.80;99.90;;;;;;5129625;27;20122;-61
2024/03/13 07:17:39;;;;;;;73.22;29.00;;;8.70;99.90;;;;;;5131430;27;20092;-61
2024/03/13 07:20:09;;;;;;;67.70;29.05;;;8.80;99.90;;;;;;5128714;27;20043;-60
2024/03/13 07:22:37;;;;;;;62.60;28.75;;;8.90;99.90;;;;;;5130641;27;20043;-60
2024/03/13 07:25:06;;;;;;;67.70;30.13;;;8.90;99.90;;;;;;5129745;27;20051;-60
2024/03/13 07:27:32;;;;;;;72.70;29.42;;;8.80;99.90;;;;;;5135381;27;20035;-60
2024/03/13 07:29:58;;;;;;;66.78;28.40;;;8.90;99.90;;;;;;5136080;27;20035;-61
2024/03/13 07:32:24;;;;;;;63.90;28.45;;;8.90;99.90;;;;;;5136470;27;20115;-61
2024/03/13 07:34:50;;;;;;;63.13;27.88;;;9.10;99.90;;;;;;5136928;27;20561;-60
2024/03/13 07:37:16;;;;;;;66.65;27.33;;;9.00;99.90;;;;;;5135798;27;20383;-61
2024/03/13 07:39:41;;;;;;;66.85;27.80;;;9.10;99.90;;;;;;5152088;27;20113;-61
2024/03/13 07:42:07;;;;;;;65.63;26.58;;;9.10;99.90;;;;;;5134109;27;20493;-61
2024/03/13 07:44:33;;;;;;;61.63;27.17;;;9.20;99.90;;;;;;5135139;27;20035;-61
2024/03/13 07:46:59;;;;;;;71.07;27.08;;;9.20;99.90;;;;;;5135134;27;20039;-61
2024/03/13 07:49:30;;;;;;;61.10;27.65;;;9.20;99.90;;;;;;5134230;27;20039;-60
2024/03/13 07:52:01;;;;;;;62.97;27.30;;;9.20;99.90;;;;;;5135897;27;20047;-62
2024/03/13 07:54:28;;;;;;;66.53;26.00;;;9.20;99.90;;;;;;5128940;27;20035;-61
2024/03/13 07:56:54;;;;;;;65.78;28.38;;;9.30;99.90;;;;;;5128868;27;20058;-61
2024/03/13 07:59:23;;;;;;;63.47;27.10;;;9.30;99.90;;;;;;5127266;27;20039;-62
2024/03/13 08:01:48;;;;;;;;;;;9.30;99.90;;;;;;5128830;27;20036;-61
2024/03/13 08:04:14;;;;;;;63.13;26.80;;;9.40;99.90;;;;;;5130286;27;19915;-61
2024/03/13 08:06:40;;;;;;;73.53;27.13;;;9.30;99.90;;;;;;5128592;27;20039;-61
2024/03/13 08:09:06;;;;;;;62.50;25.85;;;9.30;99.90;;;;;;5132575;27;20474;-61
2024/03/13 08:11:32;;;;;;;66.57;27.17;;;9.50;99.90;;;;;;5128044;27;20046;-61
2024/03/13 08:14:01;;;;;;;63.53;27.77;;;9.30;99.90;;;;;;5128523;27;20050;-61
2024/03/13 08:16:27;;;;;;;60.60;26.58;;;9.50;99.90;;;;;;5125354;27;20035;-61
2024/03/13 08:18:53;;;;;;;71.07;27.77;;;9.40;99.90;;;;;;5132033;27;20034;-61
2024/03/13 08:21:19;;;;;;;76.65;28.10;;;9.50;99.90;;;;;;5130558;27;20070;-61
2024/03/13 08:23:45;;;;;;;71.28;28.77;;;9.60;99.90;;;;;;5132732;27;20121;-61
2024/03/13 08:26:11;;;;;;;78.20;27.55;;;9.50;99.90;;;;;;5128035;27;20281;-61
2024/03/13 08:28:43;;;;;;;59.05;26.25;;;9.50;99.90;;;;;;5127299;27;20134;-61
2024/03/13 08:31:10;;;;;;;82.07;27.63;;;9.50;99.90;;;;;;5125790;27;20053;-61
2024/03/13 08:33:36;;;;;;;72.05;27.35;;;9.60;99.90;;;;;;5129097;27;20471;-61
2024/03/13 08:36:04;;;;;;;62.78;26.83;;;9.50;99.90;;;;;;5130012;27;20356;-61
2024/03/13 08:38:32;;;;;;;73.65;26.13;;;9.70;99.90;;;;;;5128614;27;20066;-61
2024/03/13 08:40:58;;;;;;;73.75;27.73;;;9.60;99.90;;;;;;5128318;27;20035;-61
2024/03/13 08:43:24;;;;;;;68.35;27.55;;;9.60;99.90;;;;;;5126877;27;20037;-61
2024/03/13 08:45:50;;;;;;;69.15;25.60;;;9.80;99.90;;;;;;5125233;27;20058;-61
2024/03/13 08:48:16;;;;;;;61.17;26.60;;;9.70;99.90;;;;;;5128651;27;20644;-61
2024/03/13 08:50:42;;;;;;;61.42;25.40;;;9.90;99.90;;;;;;5130473;27;20035;-61
2024/03/13 08:53:07;;;;;;;64.38;25.83;;;9.80;99.90;;;;;;5132480;27;20558;-61
2024/03/13 08:55:36;;;;;;;55.53;23.58;;;10.00;99.90;;;;;;5128303;27;20065;-61
2024/03/13 08:58:03;;;;;;;56.05;23.92;;;10.10;99.90;;;;;;5125250;27;20448;-61
2024/03/13 09:00:29;;;;;;;72.03;25.30;;;10.00;99.90;;;;;;5127360;27;20054;-61
2024/03/13 09:02:59;;;;;;;49.70;23.45;;;10.20;99.90;;;;;;5129640;27;20474;-62
2024/03/13 09:05:28;;;;;;;56.22;23.73;;;10.10;99.90;;;;;;5125287;27;20509;-61
2024/03/13 09:07:54;;;;;;;58.50;24.60;;;10.30;99.90;;;;;;5129687;27;20126;-61
2024/03/13 09:10:21;;;;;;;52.58;23.00;;;10.30;99.90;;;;;;5127902;27;20130;-61
2024/03/13 09:12:47;;;;;;;51.20;23.73;;;10.40;99.90;;;;;;5130670;27;20113;-61
2024/03/13 09:15:16;;;;;;;50.20;23.60;;;10.30;99.90;;;;;;5126898;27;20039;-60
2024/03/13 09:17:42;;;;;;;;;;;10.40;99.90;;;;;;5128038;27;20529;-61
2024/03/13 09:20:08;;;;;;;50.60;22.85;;;10.50;99.90;;;;;;5127884;27;19924;-61
2024/03/13 09:22:34;;;;;;;51.97;21.83;;;10.50;99.90;;;;;;5127718;27;20369;-61
2024/03/13 09:25:00;;;;;;;48.92;23.05;;;10.50;99.90;;;;;;5128443;27;20116;-61
2024/03/13 09:27:25;;;;;;;48.55;22.17;;;10.60;99.90;;;;;;5129659;27;20125;-61
2024/03/13 09:29:54;;;;;;;52.92;23.23;;;10.50;99.90;;;;;;5128156;27;20031;-62
2024/03/13 09:32:23;;;;;;;47.10;22.48;;;10.70;99.90;;;;;;5128378;27;20034;-61
2024/03/13 09:34:50;;;;;;;52.92;22.27;;;10.60;99.90;;;;;;5129378;27;20397;-61
2024/03/13 09:37:17;;;;;;;50.85;22.42;;;10.90;99.90;;;;;;5129833;27;20062;-61
2024/03/13 09:39:43;;;;;;;49.20;21.73;;;10.90;99.90;;;;;;5125566;27;20036;-60
2024/03/13 09:42:16;;;;;;;56.55;22.88;;;11.00;99.90;;;;;;5125892;27;20529;-61
2024/03/13 09:44:44;;;;;;;48.42;22.45;;;11.10;99.90;;;;;;5128275;27;20046;-61
2024/03/13 09:47:12;;;;;;;47.15;22.10;;;11.20;99.90;;;;;;5128604;27;20457;-61
2024/03/13 09:49:43;;;;;;;46.45;21.38;;;11.30;99.90;;;;;;5127142;27;20045;-61
2024/03/13 09:52:12;;;;;;;42.90;20.88;;;11.30;99.90;;;;;;5126929;27;21649;-61
2024/03/13 09:54:45;;;;;;;41.42;20.65;;;11.10;99.90;;;;;;5126640;27;20045;-61
2024/03/13 09:57:12;;;;;;;39.65;20.60;;;11.10;99.90;;;;;;5127192;27;20043;-61
2024/03/13 09:59:41;;;;;;;48.65;21.20;;;11.40;99.90;;;;;;5129427;27;20058;-61
2024/03/13 10:02:16;;;;;;;41.63;20.25;;;11.40;99.90;;;;;;5126166;27;20107;-61
2024/03/13 10:04:42;;;;;;;42.13;21.27;;;11.40;99.90;;;;;;5129382;27;20121;-61
2024/03/13 10:07:17;;;;;;;36.72;19.65;;;11.30;99.90;;;;;;5124593;27;20154;-61
2024/03/13 10:09:44;;;;;;;44.00;22.35;;;11.50;99.90;;;;;;5127345;27;20044;-61
2024/03/13 10:12:11;;;;;;;38.22;21.25;;;11.50;99.90;;;;;;5125714;27;20081;-60
2024/03/13 10:14:40;;;;;;;41.22;22.13;;;11.40;99.90;;;;;;5129224;27;20145;-61
2024/03/13 10:17:11;;;;;;;43.13;20.88;;;11.60;99.90;;;;;;5127064;27;20125;-61
2024/03/13 10:19:46;;;;;;;41.92;21.83;;;11.40;99.90;;;;;;5124627;27;20031;-61
2024/03/13 10:22:13;;;;;;;41.70;22.48;;;11.40;99.90;;;;;;5126431;27;20034;-60
2024/03/13 10:24:42;;;;;;;51.75;24.00;;;11.50;99.90;;;;;;5126091;27;20039;-61
2024/03/13 10:27:14;;;;;;;46.15;24.05;;;11.70;99.90;;;;;;5126889;27;20037;-60
2024/03/13 10:29:44;;;;;;;43.95;23.00;;;11.60;99.90;;;;;;5126732;27;20050;-61
2024/03/13 10:32:12;;;;;;;51.42;23.92;;;11.60;99.90;;;;;;5125368;27;20122;-61
2024/03/13 10:34:38;;;;;;;49.20;23.70;;;11.60;99.90;;;;;;5125659;27;20043;-61
2024/03/13 10:37:12;;;;;;;49.70;24.38;;;11.90;99.90;;;;;;5128307;27;20042;-62
2024/03/13 10:39:41;;;;;;;50.92;22.88;;;11.80;99.90;;;;;;5127606;27;20079;-61
2024/03/13 10:42:08;;;;;;;46.05;23.00;;;11.70;99.90;;;;;;5128709;27;20034;-61
2024/03/13 10:44:34;;;;;;;53.67;23.85;;;11.80;99.90;;;;;;5127155;27;20039;-61
2024/03/13 10:47:00;;;;;;;52.95;23.15;;;11.90;99.90;;;;;;5125254;27;20127;-61
2024/03/13 10:49:28;;;;;;;43.78;22.20;;;12.10;99.90;;;;;;5129894;27;20133;-61
2024/03/13 10:51:57;;;;;;;41.38;21.45;;;12.10;99.90;;;;;;5125776;27;20672;-61
2024/03/13 10:54:27;;;;;;;45.35;22.00;;;12.00;99.90;;;;;;5127196;27;20047;-61
2024/03/13 10:56:53;;;;;;;42.97;21.38;;;12.10;99.90;;;;;;5126269;27;20122;-61
2024/03/13 10:59:19;;;;;;;40.03;20.95;;;12.20;99.90;;;;;;5128016;27;20031;-61
2024/03/13 11:01:49;;;;;;;39.17;21.33;;;12.00;99.90;;;;;;5128268;27;20026;-61
2024/03/13 11:04:16;;;;;;;39.33;21.35;;;12.10;99.90;;;;;;5127148;27;20492;-61
2024/03/13 11:06:41;;;;;;;39.05;22.23;;;12.20;99.90;;;;;;5127731;27;20038;-62
2024/03/13 11:09:28;;;;;;;42.15;22.25;;;12.00;99.90;;;;;;5124945;27;20088;-61
2024/03/13 11:11:56;;;;;;;42.00;23.02;;;12.00;99.90;;;;;;5113201;27;20042;-61
2024/03/13 11:14:26;;;;;;;37.20;22.40;;;12.20;99.90;;;;;;5127180;27;20046;-61
2024/03/13 11:16:56;;;;;;;44.00;21.20;;;12.00;99.90;;;;;;5125983;27;20031;-61
2024/03/13 11:19:29;;;;;;;42.35;22.05;;;12.20;99.90;;;;;;5122723;27;20281;-61
2024/03/13 11:21:57;;;;;;;41.90;21.02;;;12.00;99.90;;;;;;5124597;27;20481;-61
2024/03/13 11:24:26;;;;;;;42.33;21.90;;;12.20;99.90;;;;;;5122832;27;20066;-61
2024/03/13 11:26:52;;;;;;;;;;;12.30;99.90;;;;;;5125160;27;20042;-61
2024/03/13 11:29:27;;;;;;;38.13;19.92;;;12.00;99.90;;;;;;5131230;27;19919;-61
2024/03/13 11:31:54;;;;;;;40.80;20.05;;;12.10;99.90;;;;;;5131626;27;20564;-61
2024/03/13 11:34:24;;;;;;;39.50;20.88;;;12.20;99.90;;;;;;5129569;27;20114;-61
2024/03/13 11:36:50;;;;;;;38.03;18.33;;;12.30;99.90;;;;;;5129819;27;20197;-63
2024/03/13 11:39:16;;;;;;;38.42;20.05;;;12.20;99.90;;;;;;5130815;27;20352;-62
2024/03/13 11:41:45;;;;;;;38.75;18.13;;;12.20;99.90;;;;;;5129991;27;20050;-62
2024/03/13 11:44:21;;;;;;;40.60;17.42;;;12.00;99.90;;;;;;5129534;27;20077;-62
2024/03/13 11:46:48;;;;;;;32.97;15.73;;;12.10;99.90;;;;;;5130434;27;20125;-62
2024/03/13 11:49:15;;;;;;;31.77;16.25;;;12.20;99.90;;;;;;5131999;27;20043;-62
2024/03/13 11:52:03;;;;;;;33.83;15.90;;;12.20;99.90;;;;;;5128643;27;20409;-62
2024/03/13 11:54:32;;;;;;;41.25;17.08;;;12.00;99.90;;;;;;5129210;27;20039;-60
2024/03/13 11:57:12;;;;;;;36.92;16.50;;;12.00;99.90;;;;;;5129224;27;20087;-62
2024/03/13 11:59:38;;;;;;;;;;;12.20;99.90;;;;;;5129780;27;20072;-62
2024/03/13 12:02:24;;;;;;;28.02;14.82;;;12.10;99.90;;;;;;5132058;27;19923;-62
2024/03/13 12:04:50;;;;;;;37.38;16.00;;;12.20;99.90;;;;;;5131639;27;20538;-62
2024/03/13 12:07:17;;;;;;;36.58;15.25;;;12.20;99.90;;;;;;5122243;27;20130;-62
2024/03/13 12:09:43;;;;;;;34.95;15.38;;;12.00;99.90;;;;;;5127394;27;20078;-62
2024/03/13 12:12:13;;;;;;;33.28;15.65;;;12.20;99.90;;;;;;5127611;27;20035;-62
2024/03/13 12:14:40;;;;;;;31.65;14.20;;;12.10;99.90;;;;;;5125299;27;20038;-62
2024/03/13 12:17:10;;;;;;;31.98;14.32;;;12.10;99.90;;;;;;5129194;27;20038;-63
2024/03/13 12:19:36;;;;;;;28.15;13.40;;;12.30;99.90;;;;;;5126956;27;20035;-60
2024/03/13 12:22:02;;;;;;;32.83;14.45;;;12.30;99.90;;;;;;5129453;27;20709;-61
2024/03/13 12:24:29;;;;;;;26.30;14.68;;;12.30;99.90;;;;;;5127623;27;20035;-61
2024/03/13 12:26:56;;;;;;;30.10;14.63;;;12.10;99.90;;;;;;5127676;27;20039;-61
2024/03/13 12:29:23;;;;;;;32.45;13.18;;;12.20;99.90;;;;;;5128534;27;20124;-62
2024/03/13 12:31:49;;;;;;;29.20;13.15;;;12.30;99.90;;;;;;5128452;27;20034;-62
2024/03/13 12:34:18;;;;;;;26.20;12.43;;;12.40;99.90;;;;;;5126854;27;20126;-63
2024/03/13 12:36:44;;;;;;;29.50;12.75;;;12.30;99.90;;;;;;5125251;27;20421;-62
2024/03/13 12:39:10;;;;;;;26.35;13.60;;;12.30;99.90;;;;;;5127609;27;20729;-62
2024/03/13 12:41:36;;;;;;;27.25;12.20;;;12.50;99.90;;;;;;5129311;27;20035;-62
2024/03/13 12:44:04;;;;;;;28.77;13.70;;;12.50;99.90;;;;;;5128217;27;20039;-61
2024/03/13 12:46:31;;;;;;;27.25;12.43;;;12.60;99.90;;;;;;5125571;27;20061;-61
2024/03/13 12:48:56;;;;;;;37.15;13.75;;;12.50;99.90;;;;;;5126080;27;20576;-61
2024/03/13 12:51:22;;;;;;;29.35;13.48;;;12.50;99.90;;;;;;5126711;27;20038;-61
2024/03/13 12:53:48;;;;;;;33.03;13.98;;;12.60;99.90;;;;;;5129583;27;20126;-61
2024/03/13 12:56:15;;;;;;;38.10;15.27;;;12.60;99.90;;;;;;5129565;27;20390;-61
2024/03/13 12:58:40;;;;;;;32.33;15.55;;;12.60;99.90;;;;;;5128100;27;20061;-62